Impacts METAR Board
IDs:

KJFK - New York/Kennedy Int, NY, US

Updated at: 2200 UTC 18 Dec 2018
Potential Impact None Slight Moderate High
Time 18/10Z 18/11Z 18/12Z 18/13Z 18/14Z 18/15Z 18/16Z 18/17Z 18/18Z 18/19Z 18/20Z 18/21Z 18/22Z
Temp34 33 33 32 32 33 34 35 36 36 36 35 34
Dewpt17 16 15 16 15 15 14 14 14 13 14 15 15
Altim29.89 29.91 29.94 29.98 30.01 30.04 30.04 30.04 30.04 30.05 30.06 30.09 30.12
VIS10 10 10 10 10 10 10 10 10 10 10 10 10
CIG50 -- -- -- -- -- -- -- -- -- -- -- --
CoverBKNFEWFEWFEWSCTSCTFEWFEWFEWFEWFEWFEWFEW
FltCatVFRVFRVFRVFRVFRVFRVFRVFRVFRVFRVFRVFRVFR
WX--------------------------
WDir330320310330330330330330310300310280310
WSpd19 25 24 21 19 23 23 18 17 17 14 16 14
WGst28 37 36 28 28 28 29 -- 24 -- 20 22 --
Raw hourly METARs
KJFK 180951Z 33019G28KT 10SM BKN050 01/M08 A2989 RMK AO2 PK WND 33033/0934 SLP121 T00111083 $
KJFK 181051Z 32025G37KT 10SM FEW050 01/M09 A2991 RMK AO2 PK WND 32044/1041 SLP129 T00061089 $
KJFK 181151Z 31024G36KT 10SM FEW050 01/M09 A2994 RMK AO2 PK WND 32037/1102 SLP137 T00061094 10044 20006 51027 $
KJFK 181251Z 33021G28KT 10SM FEW055 00/M09 A2998 RMK AO2 PK WND 32041/1155 PRESRR SLP150 T00001089
KJFK 181351Z 33019G28KT 10SM SCT043 00/M09 A3001 RMK AO2 PK WND 33035/1256 SLP161 T00001094
KJFK 181451Z 33023G28KT 10SM SCT047 01/M09 A3004 RMK AO2 PK WND 34029/1414 SLP173 T00061094 51036
KJFK 181551Z 33023G29KT 10SM FEW050 01/M10 A3004 RMK AO2 PK WND 33031/1516 SLP173 T00111100
KJFK 181651Z 33018KT 10SM FEW050 02/M10 A3004 RMK AO2 PK WND 34027/1629 SLP172 T00171100
KJFK 181751Z 31017G24KT 10SM FEW055 02/M10 A3004 RMK AO2 SLP173 T00221100 10022 21006 55000
KJFK 181851Z 30017KT 10SM FEW055 FEW250 02/M11 A3005 RMK AO2 PK WND 33026/1821 SLP176 T00221106
KJFK 181951Z 31014G20KT 10SM FEW055 FEW250 02/M10 A3006 RMK AO2 PK WND 31027/1904 SLP179 T00221100
KJFK 182051Z 28016G22KT 10SM FEW055 FEW250 02/M09 A3009 RMK AO2 SLP188 T00171094 53015
KJFK 182151Z 31014KT 10SM FEW250 01/M09 A3012 RMK AO2 SLP199 T00111094



Page loaded:  22:54 UTC  |   02:54 PM Pacific  |   03:54 PM Mountain  |   04:54 PM Central  |   05:54 PM Eastern

 

ADVISORIES

FORECASTS

FORECASTS

OBSERVATIONS

USER TOOLS

ABOUT US